This is the latest recevied weather packets stored in our database for station/object EW2310. If no packets are shown the sender has not sent any weather packets the latest 10 day(s).
| Time | Temp. | Humidity | Pressure | Rain* | Wind** | Luminosity | Snow |
|---|---|---|---|---|---|---|---|
| 1777631742 | 19.44° C | 34% | 1019.1 hPa | 0 mm | - | 935 W/m² | - |
| 1777629645 | 18.33° C | 39% | 1019.3 hPa | 0 mm | - | 911 W/m² | - |
| 1777629342 | 18.33° C | 40% | 1019.3 hPa | 0 mm | - | 905 W/m² | - |
| 1777627845 | 17.78° C | 40% | 1019.3 hPa | 0 mm | - | 879 W/m² | - |
| 1777626342 | 17.22° C | 41% | 1019.4 hPa | 0 mm | - | 826 W/m² | - |
| 1777625742 | 16.67° C | 43% | 1019.4 hPa | 0 mm | - | 754 W/m² | - |
| 1777624542 | 16.11° C | 46% | 1019.4 hPa | 0 mm | - | 605 W/m² | - |
| 1777622745 | 15.56° C | 46% | 1019.2 hPa | 0 mm | - | 633 W/m² | - |
| 1777621842 | 15° C | 49% | 1019.2 hPa | 0 mm | - | 647 W/m² | - |
| 1777621242 | 15° C | 48% | 1019.1 hPa | 0 mm | - | 640 W/m² | - |
| 1777619742 | 14.44° C | 51% | 1019.1 hPa | 0 mm | - | 577 W/m² | - |
| 1777619442 | 14.44° C | 52% | 1018.9 hPa | 0 mm | - | 555 W/m² | - |
| 1777616742 | 12.78° C | 58% | 1018.9 hPa | 0 mm | - | 373 W/m² | - |
| 1777616142 | 12.78° C | 59% | 1018.8 hPa | 0 mm | - | 420 W/m² | - |
| 1777615542 | 12.22° C | 59% | 1018.8 hPa | 0 mm | - | 380 W/m² | - |
| 1777615242 | 12.22° C | 60% | 1018.7 hPa | 0 mm | - | 374 W/m² | - |
| 1777614042 | 11.67° C | 62% | 1018.6 hPa | 0 mm | - | 253 W/m² | - |
| 1777613443 | 11.67° C | 62% | 1018.6 hPa | 0 mm | - | 214 W/m² | - |
| 1777611042 | 10.56° C | 64% | 1018.6 hPa | 0 mm | - | 83 W/m² | - |
| 1777610142 | 10.56° C | 65% | 1018.4 hPa | 0 mm | - | 21 W/m² | - |
| 1777608942 | 11.11° C | 65% | 1018.1 hPa | 0 mm | - | 9 W/m² | - |
| 1777608645 | 11.11° C | 64% | 1018.1 hPa | 0 mm | - | 5 W/m² | - |
| 1777607442 | 11.67° C | 64% | 1018 hPa | 0 mm | - | 0 W/m² | - |
| 1777606542 | 11.67° C | 63% | 1018 hPa | 0 mm | - | 0 W/m² | - |
| 1777605642 | 11.67° C | 64% | 1018 hPa | 0 mm | - | 0 W/m² | - |
* Rain latest hour (hover to see other rain measurements)
** Current wind speed in m/s (hover to see current wind gust speed)